sensor_id;sensor_type;location;lat;lon;timestamp;pressure;altitude;pressure_sealevel;temperature;humidity
63535;BME280;55128;50.230;18.944;2023-02-01T00:04:55;97843.06;;;2.74;81.46
63535;BME280;55128;50.230;18.944;2023-02-01T00:09:55;97839.97;;;2.58;81.59
63535;BME280;55128;50.230;18.944;2023-02-01T00:14:56;97818.75;;;2.34;82.08
63535;BME280;55128;50.230;18.944;2023-02-01T00:19:56;97808.22;;;2.38;81.86
63535;BME280;55128;50.230;18.944;2023-02-01T00:24:56;97800.44;;;2.34;81.84
63535;BME280;55128;50.230;18.944;2023-02-01T00:29:57;97816.34;;;2.27;82.17
63535;BME280;55128;50.230;18.944;2023-02-01T00:34:57;97818.75;;;2.34;82.43
63535;BME280;55128;50.230;18.944;2023-02-01T00:39:57;97797.19;;;2.59;81.84
63535;BME280;55128;50.230;18.944;2023-02-01T00:44:58;97791.84;;;2.62;81.80
63535;BME280;55128;50.230;18.944;2023-02-01T00:49:58;97807.31;;;2.71;81.93
63535;BME280;55128;50.230;18.944;2023-02-01T00:54:58;97823.22;;;2.97;81.26
63535;BME280;55128;50.230;18.944;2023-02-01T00:59:59;97865.28;;;2.92;81.33
63535;BME280;55128;50.230;18.944;2023-02-01T01:04:59;97919.78;;;2.79;81.77
63535;BME280;55128;50.230;18.944;2023-02-01T01:09:59;97911.50;;;2.62;82.17
63535;BME280;55128;50.230;18.944;2023-02-01T01:15:00;97901.19;;;2.56;82.25
63535;BME280;55128;50.230;18.944;2023-02-01T01:20:01;97911.97;;;2.43;82.55
63535;BME280;55128;50.230;18.944;2023-02-01T01:25:01;97909.94;;;2.19;83.20
63535;BME280;55128;50.230;18.944;2023-02-01T01:30:01;97900.69;;;2.04;83.17
63535;BME280;55128;50.230;18.944;2023-02-01T01:35:02;97906.06;;;1.99;83.43
63535;BME280;55128;50.230;18.944;2023-02-01T01:40:04;97923.03;;;1.81;83.81
63535;BME280;55128;50.230;18.944;2023-02-01T01:45:27;97929.00;;;1.88;84.24
63535;BME280;55128;50.230;18.944;2023-02-01T01:50:30;97923.03;;;1.81;84.28
63535;BME280;55128;50.230;18.944;2023-02-01T01:55:35;97905.88;;;1.68;84.88
63535;BME280;55128;50.230;18.944;2023-02-01T02:00:37;97912.00;;;1.67;84.90
63535;BME280;55128;50.230;18.944;2023-02-01T02:05:38;97909.16;;;1.76;84.28
63535;BME280;55128;50.230;18.944;2023-02-01T02:10:38;97900.41;;;1.79;84.58
63535;BME280;55128;50.230;18.944;2023-02-01T02:21:37;97910.97;;;1.74;84.82
63535;BME280;55128;50.230;18.944;2023-02-01T02:27:14;97914.13;;;1.88;84.51
63535;BME280;55128;50.230;18.944;2023-02-01T02:37:53;97917.44;;;1.97;84.38
63535;BME280;55128;50.230;18.944;2023-02-01T02:43:09;97918.03;;;2.08;83.76
63535;BME280;55128;50.230;18.944;2023-02-01T02:48:45;97911.22;;;2.01;84.02
63535;BME280;55128;50.230;18.944;2023-02-01T02:53:57;97922.56;;;2.01;84.03
63535;BME280;55128;50.230;18.944;2023-02-01T02:59:21;97909.53;;;2.00;83.91
63535;BME280;55128;50.230;18.944;2023-02-01T03:04:42;97911.09;;;2.07;84.26
63535;BME280;55128;50.230;18.944;2023-02-01T03:09:45;97906.75;;;2.06;83.74
63535;BME280;55128;50.230;18.944;2023-02-01T03:14:51;97921.69;;;2.01;83.02
63535;BME280;55128;50.230;18.944;2023-02-01T03:19:57;97916.66;;;1.91;83.82
63535;BME280;55128;50.230;18.944;2023-02-01T03:25:21;97931.59;;;1.88;84.25
63535;BME280;55128;50.230;18.944;2023-02-01T03:30:26;97933.03;;;2.03;84.22
63535;BME280;55128;50.230;18.944;2023-02-01T03:35:38;97941.44;;;1.77;84.49
63535;BME280;55128;50.230;18.944;2023-02-01T03:40:41;97945.16;;;1.65;84.78
63535;BME280;55128;50.230;18.944;2023-02-01T03:45:50;97933.81;;;1.66;85.23
63535;BME280;55128;50.230;18.944;2023-02-01T03:50:55;97930.44;;;1.61;85.57
63535;BME280;55128;50.230;18.944;2023-02-01T03:55:56;97922.59;;;1.61;85.65
63535;BME280;55128;50.230;18.944;2023-02-01T04:00:59;97924.31;;;1.62;85.31
63535;BME280;55128;50.230;18.944;2023-02-01T04:06:00;97919.91;;;1.65;85.32
63535;BME280;55128;50.230;18.944;2023-02-01T04:11:00;97922.66;;;1.58;85.33
63535;BME280;55128;50.230;18.944;2023-02-01T04:16:00;97930.25;;;1.70;85.17
63535;BME280;55128;50.230;18.944;2023-02-01T04:21:01;97927.59;;;1.71;84.88
63535;BME280;55128;50.230;18.944;2023-02-01T04:26:03;97928.41;;;1.75;85.11
63535;BME280;55128;50.230;18.944;2023-02-01T04:31:04;97923.88;;;1.82;84.98
63535;BME280;55128;50.230;18.944;2023-02-01T04:36:04;97925.56;;;1.84;84.93
63535;BME280;55128;50.230;18.944;2023-02-01T04:41:05;97915.94;;;1.86;84.85
63535;BME280;55128;50.230;18.944;2023-02-01T04:46:05;97921.59;;;2.05;84.33
63535;BME280;55128;50.230;18.944;2023-02-01T04:51:06;97915.69;;;1.97;84.25
63535;BME280;55128;50.230;18.944;2023-02-01T04:56:07;97915.44;;;2.08;84.01
63535;BME280;55128;50.230;18.944;2023-02-01T05:01:08;97912.59;;;2.17;83.61
63535;BME280;55128;50.230;18.944;2023-02-01T05:06:08;97922.78;;;1.92;82.67
63535;BME280;55128;50.230;18.944;2023-02-01T05:11:09;97920.38;;;1.83;82.97
63535;BME280;55128;50.230;18.944;2023-02-01T05:16:32;97914.94;;;1.92;83.61
63535;BME280;55128;50.230;18.944;2023-02-01T05:21:32;97902.50;;;2.02;83.42
63535;BME280;55128;50.230;18.944;2023-02-01T05:26:33;97904.34;;;1.97;83.37
63535;BME280;55128;50.230;18.944;2023-02-01T05:31:34;97904.16;;;2.04;83.33
63535;BME280;55128;50.230;18.944;2023-02-01T05:36:34;97906.06;;;1.99;83.53
63535;BME280;55128;50.230;18.944;2023-02-01T05:41:34;97897.13;;;2.06;82.58
63535;BME280;55128;50.230;18.944;2023-02-01T05:46:35;97894.06;;;1.89;82.49
63535;BME280;55128;50.230;18.944;2023-02-01T05:51:35;97895.47;;;2.04;82.67
63535;BME280;55128;50.230;18.944;2023-02-01T05:56:36;97894.63;;;2.02;83.16
63535;BME280;55128;50.230;18.944;2023-02-01T06:01:36;97894.00;;;2.28;82.77
63535;BME280;55128;50.230;18.944;2023-02-01T06:06:37;97902.72;;;2.28;81.94
63535;BME280;55128;50.230;18.944;2023-02-01T06:11:37;97906.25;;;2.27;82.34
63535;BME280;55128;50.230;18.944;2023-02-01T06:16:40;97905.19;;;2.34;81.93
63535;BME280;55128;50.230;18.944;2023-02-01T06:21:40;97909.53;;;2.36;82.06
63535;BME280;55128;50.230;18.944;2023-02-01T06:26:41;97914.31;;;2.54;80.98
63535;BME280;55128;50.230;18.944;2023-02-01T06:31:41;97920.91;;;2.34;81.86
63535;BME280;55128;50.230;18.944;2023-02-01T06:36:42;97912.97;;;2.38;81.42
63535;BME280;55128;50.230;18.944;2023-02-01T06:41:49;97911.28;;;2.37;81.52
63535;BME280;55128;50.230;18.944;2023-02-01T06:46:49;97903.22;;;2.44;81.21
63535;BME280;55128;50.230;18.944;2023-02-01T06:51:49;97897.69;;;2.55;80.96
63535;BME280;55128;50.230;18.944;2023-02-01T06:56:50;97897.44;;;2.64;80.80
63535;BME280;55128;50.230;18.944;2023-02-01T07:01:50;97890.34;;;2.69;79.79
63535;BME280;55128;50.230;18.944;2023-02-01T07:06:50;97890.38;;;2.68;79.48
63535;BME280;55128;50.230;18.944;2023-02-01T07:11:51;97896.56;;;2.65;80.23
63535;BME280;55128;50.230;18.944;2023-02-01T07:16:51;97885.84;;;2.75;79.45
63535;BME280;55128;50.230;18.944;2023-02-01T07:21:51;97888.91;;;2.90;78.86
63535;BME280;55128;50.230;18.944;2023-02-01T07:26:52;97891.19;;;3.03;79.15
63535;BME280;55128;50.230;18.944;2023-02-01T07:31:52;97901.78;;;2.98;78.28
63535;BME280;55128;50.230;18.944;2023-02-01T07:36:53;97892.88;;;3.05;77.99
63535;BME280;55128;50.230;18.944;2023-02-01T07:41:53;97889.22;;;3.11;77.57
63535;BME280;55128;50.230;18.944;2023-02-01T07:46:53;97884.06;;;3.08;77.61
63535;BME280;55128;50.230;18.944;2023-02-01T07:51:54;97891.72;;;3.16;77.94
63535;BME280;55128;50.230;18.944;2023-02-01T07:56:54;97899.19;;;3.29;78.10
63535;BME280;55128;50.230;18.944;2023-02-01T08:01:54;97893.97;;;3.28;77.26
63535;BME280;55128;50.230;18.944;2023-02-01T08:06:55;97899.78;;;3.39;77.13
63535;BME280;55128;50.230;18.944;2023-02-01T08:11:55;97899.69;;;3.42;76.89
63535;BME280;55128;50.230;18.944;2023-02-01T08:16:55;97892.97;;;3.32;77.27
63535;BME280;55128;50.230;18.944;2023-02-01T08:21:56;97895.25;;;3.44;76.35
63535;BME280;55128;50.230;18.944;2023-02-01T08:26:56;97890.78;;;3.48;76.49
63535;BME280;55128;50.230;18.944;2023-02-01T08:31:56;97883.56;;;3.55;76.40
63535;BME280;55128;50.230;18.944;2023-02-01T08:36:57;97888.81;;;3.55;75.98
63535;BME280;55128;50.230;18.944;2023-02-01T08:41:58;97890.38;;;3.62;75.27
63535;BME280;55128;50.230;18.944;2023-02-01T08:47:17;97884.19;;;3.64;75.54
63535;BME280;55128;50.230;18.944;2023-02-01T08:52:17;97885.59;;;3.75;75.15
63535;BME280;55128;50.230;18.944;2023-02-01T08:57:17;97886.94;;;3.88;74.84
63535;BME280;55128;50.230;18.944;2023-02-01T09:02:18;97892.97;;;3.92;74.52
63535;BME280;55128;50.230;18.944;2023-02-01T09:07:18;97885.59;;;4.03;74.38
63535;BME280;55128;50.230;18.944;2023-02-01T09:12:19;97884.59;;;4.07;74.79
63535;BME280;55128;50.230;18.944;2023-02-01T09:17:19;97884.94;;;4.24;72.85
63535;BME280;55128;50.230;18.944;2023-02-01T09:22:20;97877.94;;;4.23;72.76
63535;BME280;55128;50.230;18.944;2023-02-01T09:27:21;97885.91;;;4.20;73.17
63535;BME280;55128;50.230;18.944;2023-02-01T09:32:23;97881.03;;;4.36;72.89
63535;BME280;55128;50.230;18.944;2023-02-01T09:37:24;97882.78;;;4.62;73.53
63535;BME280;55128;50.230;18.944;2023-02-01T09:47:54;97864.81;;;5.00;71.95
63535;BME280;55128;50.230;18.944;2023-02-01T09:53:00;97863.94;;;5.49;71.59
63535;BME280;55128;50.230;18.944;2023-02-01T09:58:38;97855.50;;;6.08;69.88
63535;BME280;55128;50.230;18.944;2023-02-01T10:03:39;97850.50;;;6.22;68.02
63535;BME280;55128;50.230;18.944;2023-02-01T10:14:07;97842.47;;;6.48;67.53
63535;BME280;55128;50.230;18.944;2023-02-01T10:24:32;97839.59;;;5.65;67.07
63535;BME280;55128;50.230;18.944;2023-02-01T10:29:38;97832.44;;;5.69;67.34
63535;BME280;55128;50.230;18.944;2023-02-01T10:34:39;97832.06;;;5.78;66.54
63535;BME280;55128;50.230;18.944;2023-02-01T10:39:41;97845.25;;;5.55;67.74
63535;BME280;55128;50.230;18.944;2023-02-01T10:44:43;97838.16;;;5.57;67.63
63535;BME280;55128;50.230;18.944;2023-02-01T10:50:02;97833.94;;;5.29;68.56
63535;BME280;55128;50.230;18.944;2023-02-01T11:01:04;97837.16;;;5.14;70.75
63535;BME280;55128;50.230;18.944;2023-02-01T11:06:26;97818.31;;;5.01;71.02
63535;BME280;55128;50.230;18.944;2023-02-01T11:11:28;97814.78;;;5.02;72.21
63535;BME280;55128;50.230;18.944;2023-02-01T11:16:37;97808.78;;;4.98;72.14
63535;BME280;55128;50.230;18.944;2023-02-01T11:21:38;97818.16;;;5.05;72.89
63535;BME280;55128;50.230;18.944;2023-02-01T11:26:40;97809.31;;;5.32;72.49
63535;BME280;55128;50.230;18.944;2023-02-01T11:31:41;97803.41;;;5.01;72.44
63535;BME280;55128;50.230;18.944;2023-02-01T11:36:45;97795.84;;;5.16;72.47
63535;BME280;55128;50.230;18.944;2023-02-01T11:47:39;97780.31;;;5.77;71.50
63535;BME280;55128;50.230;18.944;2023-02-01T11:58:16;97765.84;;;5.43;71.75
63535;BME280;55128;50.230;18.944;2023-02-01T12:03:38;97753.78;;;5.38;71.25
63535;BME280;55128;50.230;18.944;2023-02-01T12:14:19;97751.22;;;5.58;71.13
63535;BME280;55128;50.230;18.944;2023-02-01T12:19:48;97734.44;;;5.61;70.30
63535;BME280;55128;50.230;18.944;2023-02-01T12:25:11;97726.38;;;5.65;69.44
63535;BME280;55128;50.230;18.944;2023-02-01T12:30:24;97732.88;;;5.57;69.90
63535;BME280;55128;50.230;18.944;2023-02-01T12:46:25;97725.16;;;5.30;71.05
63535;BME280;55128;50.230;18.944;2023-02-01T12:51:33;97724.91;;;5.36;71.26
63535;BME280;55128;50.230;18.944;2023-02-01T13:01:45;97709.75;;;5.43;71.89
63535;BME280;55128;50.230;18.944;2023-02-01T13:11:59;97676.31;;;5.23;72.56
63535;BME280;55128;50.230;18.944;2023-02-01T13:17:21;97680.09;;;5.16;72.80
63535;BME280;55128;50.230;18.944;2023-02-01T13:22:39;97665.44;;;5.32;72.13
63535;BME280;55128;50.230;18.944;2023-02-01T13:27:43;97673.09;;;5.59;72.24
63535;BME280;55128;50.230;18.944;2023-02-01T13:33:13;97667.38;;;5.49;71.75
63535;BME280;55128;50.230;18.944;2023-02-01T13:43:31;97683.78;;;5.12;72.56
63535;BME280;55128;50.230;18.944;2023-02-01T13:48:40;97680.63;;;4.80;73.40
63535;BME280;55128;50.230;18.944;2023-02-01T13:53:47;97706.19;;;4.53;74.48
63535;BME280;55128;50.230;18.944;2023-02-01T13:58:49;97720.44;;;4.20;75.32
63535;BME280;55128;50.230;18.944;2023-02-01T14:03:59;97722.31;;;3.92;76.40
63535;BME280;55128;50.230;18.944;2023-02-01T14:19:26;97707.91;;;3.52;77.68
63535;BME280;55128;50.230;18.944;2023-02-01T14:24:29;97705.56;;;3.42;78.23
63535;BME280;55128;50.230;18.944;2023-02-01T14:29:33;97713.91;;;3.28;78.69
63535;BME280;55128;50.230;18.944;2023-02-01T14:44:47;97700.47;;;3.09;79.70
63535;BME280;55128;50.230;18.944;2023-02-01T14:55:03;97711.19;;;3.30;79.83
63535;BME280;55128;50.230;18.944;2023-02-01T15:00:17;97713.56;;;3.38;79.48
63535;BME280;55128;50.230;18.944;2023-02-01T15:05:32;97714.53;;;3.35;79.36
63535;BME280;55128;50.230;18.944;2023-02-01T15:10:42;97718.81;;;3.38;79.88
63535;BME280;55128;50.230;18.944;2023-02-01T15:15:43;97721.34;;;3.41;80.25
63535;BME280;55128;50.230;18.944;2023-02-01T15:20:56;97741.34;;;3.45;80.39
63535;BME280;55128;50.230;18.944;2023-02-01T15:25:57;97749.75;;;3.55;80.62
63535;BME280;55128;50.230;18.944;2023-02-01T15:31:01;97744.44;;;3.58;80.89
63535;BME280;55128;50.230;18.944;2023-02-01T15:46:21;97739.72;;;3.67;80.87
63535;BME280;55128;50.230;18.944;2023-02-01T15:51:24;97749.16;;;3.73;80.05
63535;BME280;55128;50.230;18.944;2023-02-01T15:56:34;97751.78;;;3.73;80.22
63535;BME280;55128;50.230;18.944;2023-02-01T16:01:39;97750.78;;;3.50;81.30
63535;BME280;55128;50.230;18.944;2023-02-01T16:06:46;97754.19;;;3.53;81.54
63535;BME280;55128;50.230;18.944;2023-02-01T16:11:52;97761.38;;;3.47;81.26
63535;BME280;55128;50.230;18.944;2023-02-01T16:16:57;97775.72;;;3.64;81.28
63535;BME280;55128;50.230;18.944;2023-02-01T16:21:58;97775.41;;;3.73;80.58
63535;BME280;55128;50.230;18.944;2023-02-01T16:26:58;97767.38;;;3.79;80.67
63535;BME280;55128;50.230;18.944;2023-02-01T16:31:59;97761.19;;;3.80;80.85
63535;BME280;55128;50.230;18.944;2023-02-01T16:37:00;97761.25;;;3.79;80.88
63535;BME280;55128;50.230;18.944;2023-02-01T16:42:09;97774.13;;;3.58;81.11
63535;BME280;55128;50.230;18.944;2023-02-01T16:47:21;97767.00;;;3.35;81.36
63535;BME280;55128;50.230;18.944;2023-02-01T16:52:25;97787.53;;;3.49;80.99
63535;BME280;55128;50.230;18.944;2023-02-01T16:57:26;97797.63;;;3.63;80.49
63535;BME280;55128;50.230;18.944;2023-02-01T17:02:29;97798.69;;;3.57;80.42
63535;BME280;55128;50.230;18.944;2023-02-01T17:07:30;97810.59;;;3.67;80.06
63535;BME280;55128;50.230;18.944;2023-02-01T17:12:31;97811.66;;;3.62;80.36
63535;BME280;55128;50.230;18.944;2023-02-01T17:17:36;97802.56;;;3.45;79.99
63535;BME280;55128;50.230;18.944;2023-02-01T17:22:37;97795.66;;;3.41;79.50
63535;BME280;55128;50.230;18.944;2023-02-01T17:27:37;97801.44;;;3.23;79.88
63535;BME280;55128;50.230;18.944;2023-02-01T17:32:38;97789.53;;;3.42;80.47
63535;BME280;55128;50.230;18.944;2023-02-01T17:37:38;97800.47;;;3.57;79.96
63535;BME280;55128;50.230;18.944;2023-02-01T17:42:39;97793.50;;;3.54;79.85
63535;BME280;55128;50.230;18.944;2023-02-01T17:47:39;97812.59;;;3.59;79.52
63535;BME280;55128;50.230;18.944;2023-02-01T17:52:40;97800.59;;;3.52;79.99
63535;BME280;55128;50.230;18.944;2023-02-01T17:57:40;97797.50;;;3.66;79.39
63535;BME280;55128;50.230;18.944;2023-02-01T18:02:44;97798.16;;;3.46;79.44
63535;BME280;55128;50.230;18.944;2023-02-01T18:07:44;97794.88;;;3.38;79.80
63535;BME280;55128;50.230;18.944;2023-02-01T18:12:45;97780.00;;;3.40;79.79
63535;BME280;55128;50.230;18.944;2023-02-01T18:17:46;97783.25;;;3.46;80.08
63535;BME280;55128;50.230;18.944;2023-02-01T18:22:47;97770.53;;;3.62;79.47
63535;BME280;55128;50.230;18.944;2023-02-01T18:27:49;97760.50;;;3.47;79.92
63535;BME280;55128;50.230;18.944;2023-02-01T18:32:51;97764.81;;;3.49;79.49
63535;BME280;55128;50.230;18.944;2023-02-01T18:37:51;97755.88;;;3.55;79.48
63535;BME280;55128;50.230;18.944;2023-02-01T18:42:53;97761.31;;;3.49;79.19
63535;BME280;55128;50.230;18.944;2023-02-01T18:47:54;97771.63;;;3.55;79.19
63535;BME280;55128;50.230;18.944;2023-02-01T18:52:56;97762.00;;;3.56;78.75
63535;BME280;55128;50.230;18.944;2023-02-01T18:58:00;97747.72;;;3.64;78.57
63535;BME280;55128;50.230;18.944;2023-02-01T19:03:02;97744.63;;;3.52;78.68
63535;BME280;55128;50.230;18.944;2023-02-01T19:08:03;97735.25;;;3.44;79.08
63535;BME280;55128;50.230;18.944;2023-02-01T19:13:03;97733.72;;;3.37;79.41
63535;BME280;55128;50.230;18.944;2023-02-01T19:18:05;97719.69;;;3.38;79.40
63535;BME280;55128;50.230;18.944;2023-02-01T19:23:07;97704.22;;;3.57;79.25
63535;BME280;55128;50.230;18.944;2023-02-01T19:28:07;97702.41;;;3.59;79.40
63535;BME280;55128;50.230;18.944;2023-02-01T19:33:07;97692.00;;;3.56;79.00
63535;BME280;55128;50.230;18.944;2023-02-01T19:38:08;97683.53;;;3.48;79.28
63535;BME280;55128;50.230;18.944;2023-02-01T19:43:10;97682.38;;;3.57;79.57
63535;BME280;55128;50.230;18.944;2023-02-01T19:48:11;97682.84;;;3.41;79.32
63535;BME280;55128;50.230;18.944;2023-02-01T19:53:12;97664.38;;;3.46;79.67
63535;BME280;55128;50.230;18.944;2023-02-01T19:58:12;97659.16;;;3.44;79.89
63535;BME280;55128;50.230;18.944;2023-02-01T20:03:13;97657.25;;;3.49;79.95
63535;BME280;55128;50.230;18.944;2023-02-01T20:08:13;97646.84;;;3.46;79.85
63535;BME280;55128;50.230;18.944;2023-02-01T20:13:14;97630.63;;;3.60;79.44
63535;BME280;55128;50.230;18.944;2023-02-01T20:18:15;97631.97;;;3.47;80.44
63535;BME280;55128;50.230;18.944;2023-02-01T20:23:15;97624.16;;;3.45;79.93
63535;BME280;55128;50.230;18.944;2023-02-01T20:28:15;97612.59;;;3.24;80.30
63535;BME280;55128;50.230;18.944;2023-02-01T20:33:17;97617.75;;;3.27;80.87
63535;BME280;55128;50.230;18.944;2023-02-01T20:38:17;97612.84;;;3.17;81.03
63535;BME280;55128;50.230;18.944;2023-02-01T20:43:18;97619.56;;;3.25;81.41
63535;BME280;55128;50.230;18.944;2023-02-01T20:48:19;97615.88;;;3.31;80.72
63535;BME280;55128;50.230;18.944;2023-02-01T20:53:19;97618.59;;;3.28;80.58
63535;BME280;55128;50.230;18.944;2023-02-01T20:58:20;97619.59;;;2.97;80.50
63535;BME280;55128;50.230;18.944;2023-02-01T21:03:21;97591.34;;;2.79;81.15
63535;BME280;55128;50.230;18.944;2023-02-01T21:08:23;97584.63;;;2.70;81.36
63535;BME280;55128;50.230;18.944;2023-02-01T21:13:24;97578.34;;;2.76;81.45
63535;BME280;55128;50.230;18.944;2023-02-01T21:18:25;97575.88;;;2.71;81.42
63535;BME280;55128;50.230;18.944;2023-02-01T21:23:25;97569.69;;;2.73;81.76
63535;BME280;55128;50.230;18.944;2023-02-01T21:28:25;97566.69;;;2.86;81.08
63535;BME280;55128;50.230;18.944;2023-02-01T21:33:27;97554.03;;;2.99;81.11
63535;BME280;55128;50.230;18.944;2023-02-01T21:38:28;97551.25;;;3.03;80.79
63535;BME280;55128;50.230;18.944;2023-02-01T21:43:28;97555.78;;;2.98;80.98
63535;BME280;55128;50.230;18.944;2023-02-01T21:48:29;97546.09;;;3.00;81.62
63535;BME280;55128;50.230;18.944;2023-02-01T21:53:29;97550.34;;;3.04;81.82
63535;BME280;55128;50.230;18.944;2023-02-01T21:58:29;97550.44;;;3.01;81.46
63535;BME280;55128;50.230;18.944;2023-02-01T22:03:30;97542.06;;;3.17;81.49
63535;BME280;55128;50.230;18.944;2023-02-01T22:08:36;97538.00;;;3.33;81.34
63535;BME280;55128;50.230;18.944;2023-02-01T22:13:36;97548.50;;;3.33;81.04
63535;BME280;55128;50.230;18.944;2023-02-01T22:18:37;97538.28;;;3.25;81.51
63535;BME280;55128;50.230;18.944;2023-02-01T22:23:37;97545.66;;;3.39;81.10
63535;BME280;55128;50.230;18.944;2023-02-01T22:28:38;97542.28;;;3.36;81.49
63535;BME280;55128;50.230;18.944;2023-02-01T22:33:39;97532.75;;;3.33;80.57
63535;BME280;55128;50.230;18.944;2023-02-01T22:38:39;97534.38;;;3.37;80.62
63535;BME280;55128;50.230;18.944;2023-02-01T22:43:40;97540.28;;;3.44;80.43
63535;BME280;55128;50.230;18.944;2023-02-01T22:48:42;97548.19;;;3.42;80.95
63535;BME280;55128;50.230;18.944;2023-02-01T22:53:42;97569.25;;;3.39;80.90
63535;BME280;55128;50.230;18.944;2023-02-01T22:58:43;97578.22;;;3.07;81.49
63535;BME280;55128;50.230;18.944;2023-02-01T23:03:43;97577.69;;;3.22;81.92
63535;BME280;55128;50.230;18.944;2023-02-01T23:08:45;97583.22;;;3.15;81.24
63535;BME280;55128;50.230;18.944;2023-02-01T23:13:45;97590.09;;;2.90;81.27
63535;BME280;55128;50.230;18.944;2023-02-01T23:18:46;97593.50;;;2.66;82.00
63535;BME280;55128;50.230;18.944;2023-02-01T23:23:49;97590.16;;;2.61;81.38
63535;BME280;55128;50.230;18.944;2023-02-01T23:28:50;97585.06;;;2.56;81.48
63535;BME280;55128;50.230;18.944;2023-02-01T23:33:53;97592.53;;;2.40;82.30
63535;BME280;55128;50.230;18.944;2023-02-01T23:38:55;97583.28;;;2.28;82.03
63535;BME280;55128;50.230;18.944;2023-02-01T23:43:56;97591.44;;;2.18;82.72
63535;BME280;55128;50.230;18.944;2023-02-01T23:48:57;97592.44;;;2.13;82.91
63535;BME280;55128;50.230;18.944;2023-02-01T23:53:58;97589.78;;;2.15;82.60
63535;BME280;55128;50.230;18.944;2023-02-01T23:59:00;97588.09;;;2.14;82.68
